地図

経路データ

SID SEASON NUMBER BASIN SUBBASIN NAME ISO_TIME NATURE LAT LON WMO_WIND WMO_PRES WMO_AGENCY TRACK_TYPE DIST2LAND LANDFALL IFLAG USA_AGENCY USA_ATCF_ID USA_LAT USA_LON USA_RECORD USA_STATUS USA_WIND USA_PRES USA_SSHS USA_R34_NE USA_R34_SE USA_R34_SW USA_R34_NW USA_R50_NE USA_R50_SE USA_R50_SW USA_R50_NW USA_R64_NE USA_R64_SE USA_R64_SW USA_R64_NW USA_POCI USA_ROCI USA_RMW USA_EYE TOKYO_LAT TOKYO_LON TOKYO_GRADE TOKYO_WIND TOKYO_PRES TOKYO_R50_DIR TOKYO_R50_LONG TOKYO_R50_SHORT TOKYO_R30_DIR TOKYO_R30_LONG TOKYO_R30_SHORT TOKYO_LAND CMA_LAT CMA_LON CMA_CAT CMA_WIND CMA_PRES HKO_LAT HKO_LON HKO_CAT HKO_WIND HKO_PRES NEWDELHI_LAT NEWDELHI_LON NEWDELHI_GRADE NEWDELHI_WIND NEWDELHI_PRES NEWDELHI_CI NEWDELHI_DP NEWDELHI_POCI REUNION_LAT REUNION_LON REUNION_TYPE REUNION_WIND REUNION_PRES REUNION_TNUM REUNION_CI REUNION_RMW REUNION_R34_NE REUNION_R34_SE REUNION_R34_SW REUNION_R34_NW REUNION_R50_NE REUNION_R50_SE REUNION_R50_SW REUNION_R50_NW REUNION_R64_NE REUNION_R64_SE REUNION_R64_SW REUNION_R64_NW BOM_LAT BOM_LON BOM_TYPE BOM_WIND BOM_PRES BOM_TNUM BOM_CI BOM_RMW BOM_R34_NE BOM_R34_SE BOM_R34_SW BOM_R34_NW BOM_R50_NE BOM_R50_SE BOM_R50_SW BOM_R50_NW BOM_R64_NE BOM_R64_SE BOM_R64_SW BOM_R64_NW BOM_ROCI BOM_POCI BOM_EYE BOM_POS_METHOD BOM_PRES_METHOD NADI_LAT NADI_LON NADI_CAT NADI_WIND NADI_PRES WELLINGTON_LAT WELLINGTON_LON WELLINGTON_WIND WELLINGTON_PRES DS824_LAT DS824_LON DS824_STAGE DS824_WIND DS824_PRES TD9636_LAT TD9636_LON TD9636_STAGE TD9636_WIND TD9636_PRES TD9635_LAT TD9635_LON TD9635_WIND TD9635_PRES TD9635_ROCI NEUMANN_LAT NEUMANN_LON NEUMANN_CLASS NEUMANN_WIND NEUMANN_PRES MLC_LAT MLC_LON MLC_CLASS MLC_WIND MLC_PRES USA_GUST BOM_GUST BOM_GUST_PER REUNION_GUST REUNION_GUST_PER USA_SEAHGT USA_SEARAD_NE USA_SEARAD_SE USA_SEARAD_SW USA_SEARAD_NW STORM_SPEED STORM_DIR
1957350S16119 1958 86 SI WA NOT_NAMED 1957-12-16 01:00:00 NR -16.3000 119.400 1004 bom main 318 318 ______O_______ -1 -16.3000 119.400 1004 6 223
1957350S16119 1958 86 SI WA NOT_NAMED 1957-12-16 03:00:00 NR -16.4333 119.267 main 324 324 ______P_______ -1 -16.4333 119.267 1004 6 224
1957350S16119 1958 86 SI WA NOT_NAMED 1957-12-16 04:00:00 NR -16.5000 119.200 1004 bom main 331 331 ______O_______ -1 -16.5000 119.200 1004 5 224
1957350S16119 1958 86 SI WA NOT_NAMED 1957-12-16 06:00:00 TS -16.6267 119.073 main 337 337 ______P__O____ -1 -16.6333 119.067 1004 -16.6000 119.100 TC 20 1004 5 224
1957350S16119 1958 86 SI WA NOT_NAMED 1957-12-16 07:00:00 TS -16.6809 119.020 1004 bom main 344 344 ______O__P____ -1 -16.7000 119.000 1004 -16.6428 119.060 TC 20 1004 5 222
1957350S16119 1958 86 SI WA NOT_NAMED 1957-12-16 09:00:00 TS -16.7918 118.912 main 351 351 ______P__P____ -1 -16.8385 118.862 1004 -16.7296 118.978 TC 20 1004 4 224
1957350S16119 1958 86 SI WA NOT_NAMED 1957-12-16 10:00:00 TS -16.8371 118.868 1004 bom main 351 348 ______O__P____ -1 -16.9000 118.800 1004 -16.7742 118.936 TC 20 1004 4 223
1957350S16119 1958 86 SI WA NOT_NAMED 1957-12-16 12:00:00 TS -16.9207 118.786 main 359 348 ______P__P____ -1 -16.9740 118.726 1004 -16.8673 118.846 TC 20 1004 3 224
1957350S16119 1958 86 SI WA NOT_NAMED 1957-12-16 15:00:00 TS -17.0394 118.666 main 349 338 ______P__P____ -1 -17.0574 118.643 1004 -17.0214 118.690 TC 20 1004 4 224
1957350S16119 1958 86 SI WA NOT_NAMED 1957-12-16 16:00:00 TS -17.0889 118.615 1004 bom main 339 330 ______O__P____ -1 -17.1000 118.600 1004 -17.0778 118.631 TC 20 1004 5 225
1957350S16119 1958 86 SI WA NOT_NAMED 1957-12-16 18:00:00 TS -17.2149 118.485 main 330 321 ______P__O____ -1 -17.2298 118.470 1004 -17.2000 118.500 TC 20 1004 5 225
1957350S16119 1958 86 SI WA NOT_NAMED 1957-12-16 19:00:00 TS -17.2830 118.414 1004 bom main 321 313 ______O__P____ -1 -17.3000 118.400 1004 -17.2661 118.428 TC 20 1004 6 225
1957350S16119 1958 86 SI WA NOT_NAMED 1957-12-16 21:00:00 TS -17.4183 118.274 main 313 305 ______P__P____ -1 -17.4333 118.267 1004 -17.4033 118.281 TC 20 1004 6 224
1957350S16119 1958 86 SI WA NOT_NAMED 1957-12-16 22:00:00 TS -17.4858 118.206 1004 bom main 305 298 ______O__P____ -1 -17.5000 118.200 1004 -17.4715 118.212 TC 20 1004 6 223
1957350S16119 1958 86 SI WA NOT_NAMED 1957-12-17 00:00:00 TS -17.6206 118.075 main 298 288 ______P__O____ -1 -17.6412 118.051 1004 -17.6000 118.100 TC 20 1005 5 221
1957350S16119 1958 86 SI WA NOT_NAMED 1957-12-17 01:00:00 TS -17.6792 118.032 1005 bom main 292 282 ______O__P____ -1 -17.7000 118.000 1005 -17.6585 118.064 TC 20 1005 3 205
1957350S16119 1958 86 SI WA NOT_NAMED 1957-12-17 03:00:00 TS -17.7688 118.005 main 282 282 ______P__P____ -1 -17.7721 117.989 1005 -17.7655 118.021 TC 20 1005 3 0
1957350S16119 1958 86 SI WA NOT_NAMED 1957-12-17 04:00:00 TS -17.8069 118.005 1005 bom main 282 271 ______O__P____ -1 -17.8000 118.000 1005 -17.8138 118.010 TC 20 1005 2 0
1957350S16119 1958 86 SI WA NOT_NAMED 1957-12-17 06:00:00 TS -17.8833 118.000 main 271 271 ______P__O____ -1 -17.8667 118.000 1005 -17.9000 118.000 TC 20 1005 2 184
1957350S16119 1958 86 SI WA NOT_NAMED 1957-12-17 07:00:00 TS -17.9185 117.996 1005 bom main 271 261 ______O__P____ -1 -17.9000 118.000 1005 -17.9371 117.991 TC 20 1005 2 0
1957350S16119 1958 86 SI WA NOT_NAMED 1957-12-17 09:00:00 TS -17.9838 117.991 main 261 261 ______P__P____ -1 -17.9692 118.000 1005 -17.9984 117.981 TC 20 1005 2 195
1957350S16119 1958 86 SI WA NOT_NAMED 1957-12-17 10:00:00 TS -18.0120 117.990 1005 bom main 261 251 ______O__P____ -1 -18.0000 118.000 1005 -18.0241 117.980 TC 20 1005 1 0
1957350S16119 1958 86 SI WA NOT_NAMED 1957-12-17 12:00:00 TS -18.0529 117.991 main 251 251 ______P__P____ -1 -18.0370 118.000 1005 -18.0687 117.981 TC 20 1005 1 0
1957350S16119 1958 86 SI WA NOT_NAMED 1957-12-17 15:00:00 TS -18.1042 117.995 main 251 251 ______P__P____ -1 -18.0787 118.000 1005 -18.1297 117.991 TC 20 1005 1 0
1957350S16119 1958 86 SI WA NOT_NAMED 1957-12-17 16:00:00 TS -18.1256 117.997 1005 bom main 251 241 ______O__P____ -1 -18.1000 118.000 1005 -18.1512 117.994 TC 20 1005 2 171
1957350S16119 1958 86 SI WA NOT_NAMED 1957-12-17 18:00:00 TS -18.1824 118.000 main 241 241 ______P__O____ -1 -18.1649 118.000 1005 -18.2000 118.000 TC 20 1005 2 0
1957350S16119 1958 86 SI WA NOT_NAMED 1957-12-17 19:00:00 TS -18.2142 118.003 1005 bom main 241 232 ______O__P____ -1 -18.2000 118.000 1005 -18.2283 118.006 TC 20 1005 2 170
1957350S16119 1958 86 SI WA NOT_NAMED 1957-12-17 21:00:00 TS -18.2780 118.008 main 232 232 ______P__P____ -1 -18.2667 118.000 1005 -18.2894 118.016 TC 20 1005 2 0
1957350S16119 1958 86 SI WA NOT_NAMED 1957-12-17 22:00:00 TS -18.3116 118.008 1005 bom main 232 222 ______O__P____ -1 -18.3000 118.000 1005 -18.3232 118.017 TC 20 1005 2 194
1957350S16119 1958 86 SI WA NOT_NAMED 1957-12-18 00:00:00 TS -18.3794 118.004 main 222 222 ______P__O____ -1 -18.3588 118.008 1005 -18.4000 118.000 TC 20 1005 2 186
1957350S16119 1958 86 SI WA NOT_NAMED 1957-12-18 01:00:00 TS -18.4229 117.989 1005 bom main 222 212 ______O__P____ -1 -18.4000 118.000 1005 -18.4458 117.978 TC 20 1005 4 204
1957350S16119 1958 86 SI WA NOT_NAMED 1957-12-18 03:00:00 TS -18.5413 117.926 main 213 202 ______P__P____ -1 -18.5358 117.939 1005 -18.5468 117.914 TC 20 1005 4 209
1957350S16119 1958 86 SI WA NOT_NAMED 1957-12-18 04:00:00 TS -18.5995 117.888 1005 bom main 202 192 ______O__P____ -1 -18.6000 117.900 1005 -18.5990 117.876 TC 20 1005 4 215
1957350S16119 1958 86 SI WA NOT_NAMED 1957-12-18 06:00:00 TS -18.6861 117.813 main 192 192 ______P__O____ -1 -18.6721 117.825 1005 -18.7000 117.800 TC 20 1005 3 217
1957350S16119 1958 86 SI WA NOT_NAMED 1957-12-18 07:00:00 TS -18.7211 117.786 1005 bom main 192 181 ______O__P____ -1 -18.7000 117.800 1005 -18.7422 117.772 TC 19 1005 2 206
1957350S16119 1958 86 SI WA NOT_NAMED 1957-12-18 09:00:00 TS -18.7927 117.760 main 181 181 ______P__P____ -1 -18.7667 117.799 1005 -18.8187 117.720 TC 18 1005 2 199
1957350S16119 1958 86 SI WA NOT_NAMED 1957-12-18 10:00:00 TS -18.8268 117.748 1006 bom main 183 172 ______O__P____ -1 -18.8000 117.800 1006 -18.8537 117.696 TC 18 1005 2 207
1957350S16119 1958 86 SI WA NOT_NAMED 1957-12-18 12:00:00 TS -18.8927 117.702 main 172 165 ______P__P____ -1 -18.8667 117.754 1006 -18.9187 117.650 TC 17 1005 3 220
1957350S16119 1958 86 SI WA NOT_NAMED 1957-12-18 15:00:00 TS -18.9880 117.609 main 165 165 ______P__P____ -1 -18.9667 117.639 1006 -19.0093 117.580 TC 16 1005 3 223
1957350S16119 1958 86 SI WA NOT_NAMED 1957-12-18 16:00:00 TS -19.0196 117.577 1006 bom main 165 158 ______O__P____ -1 -19.0000 117.600 1006 -19.0391 117.555 TC 15 1005 3 223
1957350S16119 1958 86 SI WA NOT_NAMED 1957-12-18 18:00:00 TS -19.0833 117.517 main 158 158 ______P__O____ -1 -19.0667 117.533 1006 -19.1000 117.500 TC 15 1006 3 223
1957350S16119 1958 86 SI WA NOT_NAMED 1957-12-18 19:00:00 TS -19.1159 117.485 1006 bom main 158 152 ______O__P____ -1 -19.1000 117.500 1006 -19.1318 117.470 TC 15 1006 3 223
1957350S16119 1958 86 SI WA NOT_NAMED 1957-12-18 21:00:00 TS -19.1800 117.421 main 152 152 ______P__P____ -1 -19.1667 117.433 1006 -19.1977 117.405 TC 15 1006 3 223
1957350S16119 1958 86 SI WA NOT_NAMED 1957-12-18 22:00:00 TS -19.2126 117.388 1006 bom main 152 148 ______O__P____ -1 -19.2000 117.400 1006 -19.2315 117.370 TC 15 1006 3 224
1957350S16119 1958 86 SI WA NOT_NAMED 1957-12-19 00:00:00 TS -19.2778 117.322 main 148 148 ______P__O____ -1 -19.2667 117.333 1006 -19.3000 117.300 TC 15 1006 2 223
1957350S16119 1958 86 SI WA NOT_NAMED 1957-12-19 01:00:00 NR -19.3000 117.300 1006 bom main 148 ______O_______ -1 -19.3000 117.300 1006 TC 2 0

IBTrACS Databaseについて

本データベースは、米国NOAAが公開する1842年以降の世界の熱帯低気圧のベストトラックデータアーカイブInternational Best Track Archive for Climate Stewardship (IBTrACS)を、ウェブで閲覧しやすい形式に変換したものです。

最終更新日:2021-11-26